Hayward, WI (54843)

11:56 AM CST on December 07, 2016 (GMT -0600)
Sawyer County | | Change Station

Elev 1214 ft 46.02 °N, 91.45 °W | Updated 3 minutes ago

Light Snow
Light Snow
17 °F
Feels Like 2 °F
N
16
Wind Variable Wind from WSW
Gusts 24 mph

Today
High -- | Low -- °F
--% Chance of Precip.
Yesterday
High -- | Low -- °F
Precip. -- in
Pressure 29.93 in
Visibility 4.0 miles
Clouds Overcast 2500 ft
Windchill 2 °F
Dew Point 9 °F
Humidity 71%
Rainfall 0.00 in
Snow Depth Not available.
7:34 AM 4:20 PM
First Quarter, 54% visible
METAR KHYR 071753Z AUTO 24014G21KT 4SM -SN OVC025 M08/M13 A2986 RMK AO2 SLP135 P0000 60000 T10831128 11083 21094 50008
Pressure 29.93 in
Visibility 4.0 miles
Clouds Overcast 2500 ft
Windchill 2 °F
Dew Point 9 °F
Humidity 71%
Rainfall 0.00 in
Snow Depth Not available.
7:34 AM 4:20 PM
First Quarter, 54% visible
METAR KHYR 071753Z AUTO 24014G21KT 4SM -SN OVC025 M08/M13 A2986 RMK AO2 SLP135 P0000 60000 T10831128 11083 21094 50008

10-Day Weather Forecast

Almanac

Astronomy

Dec. 07, 2016 Rise Set
Actual Time
Civil Twilight
Nautical Twilight
Astronomical Twilight
Moon
Length of Visible Light
Length of Day
Tomorrow will be .
, % of the Moon is Illuminated

Today's Extremes

State Highs State Lows

Community

WunderPhotos

Upload Photos

1,956,156 photos uploaded!

WunderBlog® & News

Nearby

Air Quality

  Air Quality AQ Index Pollutant
Not available.

Snow Depth

Station Depth Elevation

Earthquake Activity

City Distance Mag. Time & Date
Minimum magnitude displayed is 2.5.

Coastal Water Temperatures

Place Temperature

Stations

Nearby Weather Stations

Station Location Temp. Windchill Dew Point Humidity Wind Precip. Elev Updated Type
                   

Watches & Warnings

There are currently no watches in effect.